This is the latest recevied weather packets stored in our database for station/object 9M2SAR-10. If no packets are shown the sender has not sent any weather packets the latest 10 day(s).
| Time | Temp. | Humidity | Pressure | Rain* | Wind** | Luminosity | Snow |
|---|---|---|---|---|---|---|---|
| 1777883501 | 33.33° C | 100% | 1007.9 hPa | - | - | - | - |
| 1777882601 | 33.33° C | 100% | 1008 hPa | - | - | - | - |
| 1777881701 | 33.33° C | 100% | 1008.4 hPa | - | - | - | - |
| 1777880801 | 33.89° C | 100% | 1008.5 hPa | - | - | - | - |
| 1777879901 | 33.89° C | 100% | 1008.7 hPa | - | - | - | - |
| 1777879000 | 33.33° C | 100% | 1009.1 hPa | - | - | - | - |
| 1777878100 | 33.89° C | 100% | 1009.3 hPa | - | - | - | - |
| 1777877200 | 33.89° C | 100% | 1009.5 hPa | - | - | - | - |
| 1777876300 | 34.44° C | 100% | 1009.9 hPa | - | - | - | - |
| 1777875400 | 33.89° C | 100% | 1010.5 hPa | - | - | - | - |
| 1777874502 | 33.33° C | 100% | 1010.9 hPa | - | - | - | - |
| 1777873600 | 33.33° C | 100% | 1011.3 hPa | - | - | - | - |
| 1777872700 | 32.78° C | 100% | 1011.4 hPa | - | - | - | - |
| 1777871800 | 32.22° C | 100% | 1011.6 hPa | - | - | - | - |
| 1777870900 | 32.22° C | 100% | 1011.7 hPa | - | - | - | - |
| 1777870000 | 31.67° C | 100% | 1011.9 hPa | - | - | - | - |
| 1777869100 | 31.11° C | 100% | 1012.1 hPa | - | - | - | - |
| 1777868199 | 30.56° C | 100% | 1012.3 hPa | - | - | - | - |
| 1777867299 | 30.56° C | 100% | 1012.3 hPa | - | - | - | - |
| 1777847498 | 27.22° C | 100% | 1009.5 hPa | - | - | - | - |
| 1777842997 | 27.22° C | 100% | 1008.9 hPa | - | - | - | - |
| 1777842097 | 27.22° C | 100% | 1009 hPa | - | - | - | - |
| 1777840297 | 27.22° C | 100% | 1008.7 hPa | - | - | - | - |
| 1777839397 | 27.22° C | 100% | 1008.6 hPa | - | - | - | - |
| 1777838497 | 27.22° C | 100% | 1008.6 hPa | - | - | - | - |
* Rain since midnight (hover to see other rain measurements)
** Current wind speed in m/s (hover to see current wind gust speed)